Time;durP1;ratioP1;P1;durP2;ratioP2;P2;SDS_P1;SDS_P2;PMS_P1;PMS_P2;Temp;Humidity;BMP_temperature;BMP_pressure;BME280_temperature;BME280_humidity;BME280_pressure;Samples;Min_cycle;Max_cycle;Signal;HPM_P1;HPM_P2
2023/10/12 00:01:57;;;;;;;7.25;1.80;;;14.90;99.90;;;;;;5036044;28;20072;-60
2023/10/12 00:04:43;;;;;;;5.72;1.55;;;14.80;99.90;;;;;;5052948;28;20045;-60
2023/10/12 00:07:15;;;;;;;6.57;1.10;;;14.90;99.90;;;;;;5053724;28;20072;-59
2023/10/12 00:09:48;;;;;;;7.10;1.75;;;14.70;99.90;;;;;;5032878;28;20283;-61
2023/10/12 00:12:24;;;;;;;7.47;1.88;;;15.00;99.90;;;;;;5003137;28;20049;-61
2023/10/12 00:14:54;;;;;;;9.50;2.22;;;14.70;99.90;;;;;;5033474;28;20041;-62
2023/10/12 00:17:23;;;;;;;6.32;1.70;;;14.80;99.90;;;;;;5053241;28;20566;-61
2023/10/12 00:19:51;;;;;;;9.20;2.00;;;14.90;99.90;;;;;;5035896;28;20040;-59
2023/10/12 00:22:17;;;;;;;11.90;2.88;;;14.90;99.90;;;;;;5053144;28;20542;-60
2023/10/12 00:24:43;;;;;;;7.68;2.25;;;14.70;99.90;;;;;;5053460;28;20123;-60
2023/10/12 00:27:11;;;;;;;10.00;1.60;;;14.50;99.90;;;;;;5053076;28;20045;-60
2023/10/12 00:29:39;;;;;;;8.23;1.75;;;14.50;99.90;;;;;;5053311;28;20488;-61
2023/10/12 00:32:08;;;;;;;8.48;2.10;;;14.70;99.90;;;;;;5053432;28;20037;-61
2023/10/12 00:34:36;;;;;;;8.57;2.03;;;14.50;99.90;;;;;;5035574;28;20090;-60
2023/10/12 00:37:03;;;;;;;6.43;1.80;;;14.60;99.90;;;;;;5030229;28;20049;-61
2023/10/12 00:39:44;;;;;;;6.10;1.30;;;14.50;99.90;;;;;;5034072;28;20112;-60
2023/10/12 00:42:11;;;;;;;9.07;2.00;;;14.50;99.90;;;;;;5052753;28;20033;-60
2023/10/12 00:44:40;;;;;;;6.88;1.92;;;14.70;99.90;;;;;;5052457;28;20049;-60
2023/10/12 00:50:08;;;;;;;;;;;14.50;99.90;;;;;;5039725;28;20044;-61
2023/10/12 00:52:46;;;;;;;10.35;2.13;;;14.50;99.90;;;;;;5034300;28;20007;-60
2023/10/12 00:55:21;;;;;;;9.27;2.28;;;14.50;99.90;;;;;;5052773;28;20059;-59
2023/10/12 00:57:50;;;;;;;5.40;1.80;;;14.50;99.90;;;;;;5051379;28;20045;-61
2023/10/12 01:00:16;;;;;;;8.57;1.95;;;14.60;99.90;;;;;;5052538;28;20041;-60
2023/10/12 01:03:06;;;;;;;9.88;2.05;;;14.70;99.90;;;;;;5052964;28;20500;-61
2023/10/12 01:05:35;;;;;;;10.25;1.90;;;14.60;99.90;;;;;;5052494;28;20041;-61
2023/10/12 01:08:03;;;;;;;7.05;1.85;;;14.60;99.90;;;;;;5052057;28;20050;-59
2023/10/12 01:10:32;;;;;;;13.20;2.03;;;14.50;99.90;;;;;;5036602;28;20084;-60
2023/10/12 01:13:00;;;;;;;7.38;1.90;;;14.40;99.90;;;;;;5033305;28;20396;-61
2023/10/12 01:15:30;;;;;;;8.10;1.92;;;14.60;99.90;;;;;;5052579;28;20077;-61
2023/10/12 01:17:56;;;;;;;7.63;1.17;;;14.40;99.90;;;;;;5052120;28;20054;-61
2023/10/12 01:20:36;;;;;;;9.00;1.85;;;14.50;99.90;;;;;;5034558;28;20033;-60
2023/10/12 01:23:03;;;;;;;8.65;1.90;;;14.40;99.90;;;;;;5052234;28;20040;-61
2023/10/12 01:25:29;;;;;;;9.85;2.38;;;14.40;99.90;;;;;;5052102;28;20507;-59
2023/10/12 01:27:55;;;;;;;9.27;2.28;;;14.50;99.90;;;;;;5034513;28;20541;-60
2023/10/12 01:30:22;;;;;;;10.15;2.00;;;14.40;99.90;;;;;;5051961;28;20044;-60
2023/10/12 01:32:57;;;;;;;7.05;2.00;;;14.40;99.90;;;;;;4997386;28;20038;-60
2023/10/12 01:35:27;;;;;;;11.18;2.58;;;14.30;99.90;;;;;;5050932;28;20033;-60
2023/10/12 01:38:00;;;;;;;9.27;2.30;;;14.50;99.90;;;;;;5051723;28;20112;-61
2023/10/12 01:40:27;;;;;;;12.10;2.60;;;14.40;99.90;;;;;;5052221;28;20033;-60
2023/10/12 01:42:56;;;;;;;9.93;2.65;;;14.40;99.90;;;;;;5033756;28;20041;-60
2023/10/12 01:47:55;;;;;;;12.55;2.60;;;14.30;99.90;;;;;;5049672;28;20041;-61
2023/10/12 01:50:24;;;;;;;9.65;1.92;;;14.40;99.90;;;;;;5051258;28;20032;-60
2023/10/12 01:52:52;;;;;;;10.55;2.13;;;14.30;99.90;;;;;;5050145;28;20040;-61
2023/10/12 01:55:28;;;;;;;9.70;2.25;;;14.30;99.90;;;;;;5050371;28;20403;-61
2023/10/12 01:57:54;;;;;;;9.80;2.22;;;14.30;99.90;;;;;;5046251;28;20047;-61
2023/10/12 02:00:40;;;;;;;10.77;2.63;;;14.40;99.90;;;;;;5037219;28;20042;-61
2023/10/12 02:03:17;;;;;;;10.25;2.75;;;14.40;99.90;;;;;;5031945;28;20176;-61
2023/10/12 02:05:50;;;;;;;11.80;2.70;;;14.20;99.90;;;;;;5030982;28;20393;-62
2023/10/12 02:08:17;;;;;;;15.13;2.85;;;14.40;99.90;;;;;;5032102;28;20052;-62
2023/10/12 02:10:56;;;;;;;10.38;2.22;;;14.40;99.90;;;;;;5047622;28;20120;-61
2023/10/12 02:13:23;;;;;;;8.65;2.20;;;14.40;99.90;;;;;;5031503;28;20029;-59
2023/10/12 02:15:52;;;;;;;8.82;1.38;;;14.10;99.90;;;;;;5049368;28;20396;-61
2023/10/12 02:18:19;;;;;;;10.70;2.47;;;14.20;99.90;;;;;;5033285;28;20033;-62
2023/10/12 02:23:36;;;;;;;9.20;2.72;;;14.10;99.90;;;;;;5031208;28;20041;-63
2023/10/12 02:26:07;;;;;;;12.10;2.55;;;14.20;99.90;;;;;;5031267;28;20045;-63
2023/10/12 02:28:37;;;;;;;10.05;2.30;;;14.00;99.90;;;;;;5031455;28;20036;-62
2023/10/12 02:31:05;;;;;;;10.05;2.47;;;14.20;99.90;;;;;;5030782;28;20037;-63
2023/10/12 02:33:37;;;;;;;12.27;2.40;;;14.10;99.90;;;;;;5030899;28;20095;-63
2023/10/12 02:36:09;;;;;;;12.30;2.63;;;14.30;99.90;;;;;;5030677;28;20200;-62
2023/10/12 02:38:35;;;;;;;10.88;2.08;;;14.20;99.90;;;;;;5049766;28;20068;-63
2023/10/12 02:41:01;;;;;;;10.00;2.25;;;14.10;99.90;;;;;;5050481;28;20033;-62
2023/10/12 02:43:28;;;;;;;9.77;2.63;;;14.10;99.90;;;;;;5050729;28;20041;-62
2023/10/12 02:46:01;;;;;;;12.93;2.47;;;13.90;99.90;;;;;;5027462;28;20061;-62
2023/10/12 02:48:29;;;;;;;12.57;2.20;;;13.90;99.90;;;;;;5050020;28;20127;-61
2023/10/12 02:50:58;;;;;;;10.32;2.58;;;14.10;99.90;;;;;;5043308;28;20046;-61
2023/10/12 02:53:30;;;;;;;17.35;3.03;;;14.10;99.90;;;;;;5033924;28;20041;-63
2023/10/12 02:55:58;;;;;;;9.50;2.45;;;14.20;99.90;;;;;;5031196;28;20063;-62
2023/10/12 02:58:25;;;;;;;13.23;2.95;;;13.90;99.90;;;;;;5031753;28;20072;-61
2023/10/12 03:00:56;;;;;;;10.00;2.38;;;13.90;99.90;;;;;;5038938;28;20029;-60
2023/10/12 03:03:36;;;;;;;6.63;1.40;;;14.00;99.90;;;;;;5030301;28;20037;-62
2023/10/12 03:06:07;;;;;;;9.98;1.67;;;14.10;99.90;;;;;;5048689;28;20048;-62
2023/10/12 03:08:46;;;;;;;14.90;2.90;;;14.20;99.90;;;;;;5037890;28;20116;-59
2023/10/12 03:11:19;;;;;;;12.75;2.80;;;14.20;99.90;;;;;;5012253;28;20126;-61
2023/10/12 03:13:58;;;;;;;10.88;2.45;;;13.90;99.90;;;;;;5049127;28;20036;-60
2023/10/12 03:16:24;;;;;;;8.70;2.50;;;14.00;99.90;;;;;;5054877;28;20041;-61
2023/10/12 03:19:35;;;;;;;12.77;2.67;;;14.20;99.90;;;;;;5056635;28;20357;-61
2023/10/12 03:21:39;;;;;;;14.05;2.85;;;14.10;99.90;;;;;;5050814;28;20080;-62
2023/10/12 03:24:05;;;;;;;10.02;2.60;;;13.90;99.90;;;;;;5053604;28;20567;-60
2023/10/12 03:26:33;;;;;;;11.82;2.38;;;13.90;99.90;;;;;;5036900;28;20084;-60
2023/10/12 03:29:20;;;;;;;11.15;2.08;;;13.90;99.90;;;;;;5056318;28;20068;-61
2023/10/12 03:37:02;;;;;;;13.30;3.20;;;13.90;99.90;;;;;;5056955;28;20593;-61
2023/10/12 03:39:28;;;;;;;9.75;2.83;;;13.90;99.90;;;;;;5056772;28;20044;-60
2023/10/12 03:41:55;;;;;;;10.15;2.50;;;13.90;99.90;;;;;;5050668;28;20045;-60
2023/10/12 03:44:35;;;;;;;12.57;2.58;;;13.90;99.90;;;;;;5037260;28;20056;-60
2023/10/12 03:47:04;;;;;;;12.63;2.58;;;13.90;99.90;;;;;;5056101;28;20123;-62
2023/10/12 03:49:43;;;;;;;13.05;2.72;;;14.00;99.90;;;;;;5056966;28;20041;-59
2023/10/12 03:52:16;;;;;;;12.68;2.78;;;13.90;99.90;;;;;;5038746;28;20048;-61
2023/10/12 03:54:56;;;;;;;11.55;3.35;;;14.10;99.90;;;;;;5056636;28;20041;-60
2023/10/12 03:57:39;;;;;;;14.30;3.03;;;14.00;99.90;;;;;;5056237;28;20083;-60
2023/10/12 04:18:42;;;;;;;14.18;3.47;;;13.80;99.90;;;;;;5035747;28;20045;-62
2023/10/12 04:21:22;;;;;;;12.35;3.33;;;13.90;99.90;;;;;;5036285;28;20044;-60
2023/10/12 04:24:27;;;;;;;11.75;3.08;;;14.00;99.90;;;;;;5051754;28;20087;-60
2023/10/12 04:29:08;;;;;;;13.23;3.47;;;14.00;99.90;;;;;;5034581;28;20053;-59
2023/10/12 04:31:36;;;;;;;12.77;3.42;;;13.80;99.90;;;;;;5034540;28;20040;-60
2023/10/12 04:34:08;;;;;;;15.27;3.55;;;13.90;99.90;;;;;;5024713;28;20045;-60
2023/10/12 04:47:07;;;;;;;14.10;3.40;;;14.00;99.90;;;;;;5052796;28;20401;-61
2023/10/12 04:57:30;;;;;;;16.05;4.10;;;13.90;99.90;;;;;;5051955;28;20138;-60
2023/10/12 05:07:59;;;;;;;15.57;3.90;;;13.80;99.90;;;;;;5032620;28;20041;-62
2023/10/12 05:10:28;;;;;;;14.85;4.07;;;14.10;99.90;;;;;;5032412;28;20082;-61
2023/10/12 05:12:57;;;;;;;9.65;3.45;;;14.00;99.90;;;;;;5050980;28;20065;-61
2023/10/12 05:15:26;;;;;;;10.65;3.70;;;13.80;99.90;;;;;;5051779;28;20088;-59
2023/10/12 05:17:52;;;;;;;12.98;2.78;;;14.10;99.90;;;;;;5051785;28;20041;-60
2023/10/12 05:20:22;;;;;;;11.38;4.05;;;14.00;99.90;;;;;;5043432;28;20077;-61
2023/10/12 05:22:48;;;;;;;13.68;3.83;;;13.90;99.90;;;;;;5050305;28;20381;-59
2023/10/12 05:25:14;;;;;;;12.73;4.47;;;13.80;99.90;;;;;;5052008;28;20040;-60
2023/10/12 05:27:39;;;;;;;9.77;2.42;;;13.80;99.90;;;;;;5051839;28;20090;-60
2023/10/12 05:30:14;;;;;;;12.05;2.65;;;14.10;99.90;;;;;;5052336;28;20047;-61
2023/10/12 05:32:55;;;;;;;15.43;4.00;;;13.90;99.90;;;;;;5049592;28;20041;-61
2023/10/12 05:35:46;;;;;;;14.43;4.28;;;14.10;99.90;;;;;;5031919;28;20050;-59
2023/10/12 05:38:07;;;;;;;13.73;4.85;;;13.90;99.90;;;;;;5034514;28;20099;-60
2023/10/12 05:40:35;;;;;;;11.63;4.70;;;14.10;99.90;;;;;;5031182;28;20041;-60
2023/10/12 05:43:11;;;;;;;14.18;4.30;;;14.10;99.90;;;;;;5050421;28;20413;-60
2023/10/12 05:45:37;;;;;;;10.23;4.13;;;14.10;99.90;;;;;;5051232;28;20452;-60
2023/10/12 05:48:04;;;;;;;15.00;4.60;;;14.10;99.90;;;;;;5051230;28;20506;-61
2023/10/12 05:50:31;;;;;;;13.05;4.35;;;14.10;99.90;;;;;;5051899;28;20127;-61
2023/10/12 05:52:59;;;;;;;12.57;4.30;;;13.80;99.90;;;;;;5051268;28;20040;-60
2023/10/12 05:55:25;;;;;;;13.50;4.18;;;13.90;99.90;;;;;;5051197;28;20041;-61
2023/10/12 05:57:55;;;;;;;12.50;4.30;;;13.90;99.90;;;;;;5051063;28;20029;-61
2023/10/12 06:00:36;;;;;;;13.60;4.32;;;13.70;99.90;;;;;;5035091;28;20068;-61
2023/10/12 06:03:05;;;;;;;11.90;4.28;;;13.80;99.90;;;;;;5013308;28;20037;-62
2023/10/12 06:05:34;;;;;;;14.02;4.40;;;13.80;99.90;;;;;;5030570;28;20503;-61
2023/10/12 06:08:05;;;;;;;13.30;5.05;;;13.70;99.90;;;;;;5024190;28;20047;-61
2023/10/12 06:10:33;;;;;;;13.32;5.00;;;13.90;99.90;;;;;;5034152;28;20103;-61
2023/10/12 06:12:59;;;;;;;15.50;5.53;;;13.90;99.90;;;;;;5041642;28;20121;-60
2023/10/12 06:15:25;;;;;;;13.35;3.08;;;13.70;99.90;;;;;;5030861;28;20104;-60
2023/10/12 06:17:55;;;;;;;16.25;5.40;;;13.60;99.90;;;;;;5034708;28;20033;-60
2023/10/12 06:20:36;;;;;;;15.30;5.30;;;13.80;99.90;;;;;;5050770;28;20044;-61
2023/10/12 06:23:08;;;;;;;13.82;5.20;;;13.60;99.90;;;;;;5051279;28;20059;-60
2023/10/12 06:25:37;;;;;;;10.30;3.20;;;13.90;99.90;;;;;;5030951;28;20099;-60
2023/10/12 06:28:14;;;;;;;15.00;5.28;;;13.60;99.90;;;;;;5030872;28;20109;-60
2023/10/12 06:30:46;;;;;;;16.63;5.47;;;13.60;99.90;;;;;;5033074;28;20077;-61
2023/10/12 06:33:15;;;;;;;16.52;5.72;;;13.90;99.90;;;;;;5050630;28;20488;-60
2023/10/12 06:36:00;;;;;;;13.88;3.10;;;13.60;99.90;;;;;;5026996;28;20348;-60
2023/10/12 06:46:19;;;;;;;13.93;5.40;;;13.60;99.90;;;;;;5029789;28;20080;-61
2023/10/12 06:48:45;;;;;;;14.40;5.00;;;13.70;99.90;;;;;;5030557;28;20603;-60
2023/10/12 06:51:13;;;;;;;14.13;3.15;;;13.60;99.90;;;;;;5030394;28;20179;-61
2023/10/12 06:53:41;;;;;;;14.07;5.10;;;13.70;99.90;;;;;;5013789;28;20420;-61
2023/10/12 06:59:08;;;;;;;12.30;4.60;;;13.90;99.90;;;;;;5050459;28;20052;-62
2023/10/12 07:01:39;;;;;;;11.60;3.10;;;13.80;99.90;;;;;;5030244;28;20188;-61
2023/10/12 07:04:18;;;;;;;17.45;3.13;;;13.80;99.90;;;;;;5030825;28;20124;-61
2023/10/12 07:06:57;;;;;;;13.48;4.88;;;13.60;99.90;;;;;;5018122;28;20036;-61
2023/10/12 07:09:37;;;;;;;14.60;5.00;;;13.90;99.90;;;;;;5043493;28;20125;-60
2023/10/12 07:12:04;;;;;;;12.40;4.70;;;13.70;99.90;;;;;;5040125;28;20432;-61
2023/10/12 07:14:37;;;;;;;13.73;4.55;;;13.60;99.90;;;;;;5037375;28;20091;-60
2023/10/12 07:17:04;;;;;;;13.75;5.10;;;13.70;99.90;;;;;;5026015;28;20029;-61
2023/10/12 07:19:30;;;;;;;13.80;2.47;;;13.80;99.90;;;;;;5035417;28;20029;-60
2023/10/12 07:22:01;;;;;;;14.38;3.17;;;13.60;99.90;;;;;;5036407;28;20048;-60
2023/10/12 07:24:30;;;;;;;13.20;4.55;;;13.60;99.90;;;;;;5032952;28;20037;-60
2023/10/12 07:27:09;;;;;;;14.82;4.85;;;13.90;99.90;;;;;;5035989;28;20117;-61
2023/10/12 07:29:37;;;;;;;17.02;3.03;;;13.70;99.90;;;;;;5035472;28;20069;-59
2023/10/12 07:33:04;;;;;;;17.85;4.75;;;13.70;99.90;;;;;;5033278;28;20091;-60
2023/10/12 07:35:06;;;;;;;13.43;4.63;;;13.80;99.90;;;;;;5015475;28;20424;-60
2023/10/12 07:37:32;;;;;;;12.80;4.80;;;13.80;99.90;;;;;;5035419;28;20037;-60
2023/10/12 07:40:13;;;;;;;15.85;5.10;;;13.90;99.90;;;;;;5020151;28;20424;-61
2023/10/12 07:42:46;;;;;;;18.42;6.15;;;14.00;99.90;;;;;;5037339;28;20048;-60
2023/10/12 07:45:15;;;;;;;14.60;5.03;;;14.00;99.90;;;;;;5036149;28;20599;-61
2023/10/12 07:47:41;;;;;;;11.50;3.65;;;14.40;99.90;;;;;;5033531;28;20049;-60
2023/10/12 07:50:13;;;;;;;13.63;4.72;;;14.20;99.90;;;;;;5035894;28;20044;-60
2023/10/12 07:52:48;;;;;;;13.70;4.85;;;14.40;99.90;;;;;;5024870;28;20119;-61
2023/10/12 07:55:16;;;;;;;11.27;4.20;;;14.30;99.90;;;;;;5034927;28;20045;-60
2023/10/12 07:57:42;;;;;;;12.68;3.72;;;14.50;99.90;;;;;;5034904;28;20166;-61
2023/10/12 08:13:26;;;;;;;9.85;1.65;;;14.80;99.90;;;;;;5039362;28;20164;-60
2023/10/12 08:21:22;;;;;;;10.90;3.10;;;14.70;99.90;;;;;;5021986;28;20037;-61
2023/10/12 08:23:50;;;;;;;12.20;3.83;;;14.60;99.90;;;;;;5037864;28;20045;-60
2023/10/12 08:32:03;;;;;;;13.93;3.72;;;14.50;99.90;;;;;;5014052;28;20037;-60
2023/10/12 08:39:38;;;;;;;12.32;2.38;;;14.50;99.90;;;;;;5051790;28;20124;-59
2023/10/12 08:44:53;;;;;;;9.63;3.00;;;14.40;99.90;;;;;;5052938;28;20500;-61
2023/10/12 08:47:31;;;;;;;14.63;2.95;;;14.60;99.90;;;;;;5052577;28;20056;-59
2023/10/12 08:52:33;;;;;;;11.13;2.90;;;14.50;99.90;;;;;;5052647;28;20124;-60
2023/10/12 08:55:12;;;;;;;10.98;2.85;;;14.60;99.90;;;;;;5052992;28;20102;-60
2023/10/12 08:57:52;;;;;;;14.88;2.53;;;14.50;99.90;;;;;;5052696;28;20041;-59
2023/10/12 09:02:58;;;;;;;11.80;2.50;;;14.50;99.90;;;;;;5039682;28;20057;-59
2023/10/12 09:05:33;;;;;;;;;;;14.40;99.90;;;;;;5033161;28;20116;-60
2023/10/12 09:10:54;;;;;;;11.90;3.13;;;14.60;99.90;;;;;;5051550;28;20142;-59
2023/10/12 09:13:33;;;;;;;13.23;3.58;;;14.60;99.90;;;;;;5034202;28;20084;-59
2023/10/12 09:16:00;;;;;;;12.57;3.13;;;14.60;99.90;;;;;;5052094;28;20357;-59
2023/10/12 09:18:43;;;;;;;12.95;2.97;;;14.70;99.90;;;;;;5052582;28;20507;-59
2023/10/12 09:23:50;;;;;;;12.45;3.20;;;14.60;99.90;;;;;;5034698;28;20606;-60
2023/10/12 09:26:25;;;;;;;11.88;3.28;;;14.60;99.90;;;;;;5036958;28;20040;-59
2023/10/12 09:34:44;;;;;;;13.30;3.33;;;14.80;99.90;;;;;;5035953;28;20055;-59
2023/10/12 09:37:16;;;;;;;17.65;4.13;;;14.90;99.90;;;;;;5036479;28;20128;-59
2023/10/12 09:39:45;;;;;;;10.52;3.28;;;14.90;99.90;;;;;;5038395;28;20044;-59
2023/10/12 09:42:22;;;;;;;14.00;3.17;;;15.00;99.90;;;;;;5037789;28;20029;-59
2023/10/12 09:45:01;;;;;;;15.23;3.95;;;15.00;99.90;;;;;;5035929;28;21810;-59
2023/10/12 09:47:43;;;;;;;11.48;3.05;;;15.00;99.90;;;;;;5023738;28;20089;-59
2023/10/12 09:50:13;;;;;;;13.95;2.30;;;15.00;99.90;;;;;;5037097;28;20037;-59
2023/10/12 09:52:46;;;;;;;15.60;3.47;;;15.00;99.90;;;;;;5038319;28;20060;-59
2023/10/12 09:55:23;;;;;;;13.10;3.57;;;14.90;99.90;;;;;;5020361;28;20045;-59
2023/10/12 09:57:50;;;;;;;14.13;3.47;;;14.90;99.90;;;;;;5038503;28;20128;-59
2023/10/12 10:00:55;;;;;;;13.65;3.00;;;14.90;99.90;;;;;;5021145;28;20049;-59
2023/10/12 10:03:17;;;;;;;13.85;2.80;;;15.10;99.90;;;;;;5036333;28;20049;-59
2023/10/12 10:06:10;;;;;;;12.23;2.53;;;15.00;99.90;;;;;;5036448;28;20480;-59
2023/10/12 10:08:44;;;;;;;11.10;2.92;;;15.00;99.90;;;;;;5036962;28;20107;-59
2023/10/12 10:11:11;;;;;;;12.30;2.90;;;15.00;99.90;;;;;;5037478;28;20051;-60
2023/10/12 10:13:49;;;;;;;11.77;2.88;;;15.10;99.90;;;;;;5021717;28;20029;-57
2023/10/12 10:16:19;;;;;;;10.05;3.15;;;15.10;99.90;;;;;;5035631;28;21204;-58
2023/10/12 10:21:38;;;;;;;11.98;2.75;;;15.20;99.90;;;;;;5039242;28;20037;-59
2023/10/12 10:24:15;;;;;;;13.13;3.72;;;15.20;99.90;;;;;;5037534;28;20070;-58
2023/10/12 10:26:43;;;;;;;11.52;2.92;;;15.10;99.90;;;;;;5036980;28;20488;-59
2023/10/12 10:29:17;;;;;;;11.00;2.60;;;15.20;99.90;;;;;;5034780;28;20053;-58
2023/10/12 10:31:44;;;;;;;;;;;15.10;99.90;;;;;;5036991;28;20029;-59
2023/10/12 10:34:14;;;;;;;10.10;2.90;;;15.10;99.90;;;;;;5035311;28;19920;-58
2023/10/12 10:36:44;;;;;;;14.30;2.30;;;15.10;99.90;;;;;;5036841;28;20037;-61
2023/10/12 10:44:27;;;;;;;12.45;2.50;;;15.00;99.90;;;;;;5034471;28;20516;-60
2023/10/12 10:47:06;;;;;;;13.88;1.80;;;14.90;99.90;;;;;;5036365;28;20292;-59
2023/10/12 10:49:32;;;;;;;9.88;2.35;;;14.90;99.90;;;;;;5016274;28;20050;-58
2023/10/12 10:52:13;;;;;;;11.38;2.10;;;14.90;99.90;;;;;;5031286;28;20405;-58
2023/10/12 10:54:41;;;;;;;9.18;1.63;;;14.80;99.90;;;;;;5033185;28;20492;-57
2023/10/12 10:57:24;;;;;;;9.75;1.90;;;14.80;99.90;;;;;;5034172;28;20045;-58
2023/10/12 10:59:51;;;;;;;13.20;2.55;;;14.80;99.90;;;;;;5034819;28;20033;-56
2023/10/12 11:02:18;;;;;;;13.48;2.38;;;14.60;99.90;;;;;;5036173;28;20033;-58
2023/10/12 11:04:46;;;;;;;11.13;2.55;;;14.50;99.90;;;;;;5033751;28;20073;-58
2023/10/12 11:07:14;;;;;;;10.73;2.20;;;14.50;99.90;;;;;;5016716;28;20068;-59
2023/10/12 11:12:23;;;;;;;10.02;1.70;;;14.50;99.90;;;;;;5036600;28;20045;-59
2023/10/12 11:15:08;;;;;;;11.75;2.22;;;14.50;99.90;;;;;;5015713;28;20512;-59
2023/10/12 11:17:40;;;;;;;10.05;1.75;;;14.60;99.90;;;;;;5036620;28;20091;-57
2023/10/12 11:20:27;;;;;;;9.10;1.58;;;14.50;99.90;;;;;;5036977;28;20392;-59
2023/10/12 11:22:57;;;;;;;12.50;1.90;;;14.60;99.90;;;;;;5036897;28;20052;-60
2023/10/12 11:25:26;;;;;;;10.63;2.03;;;14.60;99.90;;;;;;5035072;28;20038;-59
2023/10/12 11:27:53;;;;;;;11.77;1.83;;;14.60;99.90;;;;;;5033737;28;20042;-57
2023/10/12 11:30:35;;;;;;;11.80;2.10;;;14.70;99.90;;;;;;5034341;28;20033;-58
2023/10/12 11:33:07;;;;;;;11.70;1.92;;;14.70;99.90;;;;;;5035138;28;20025;-59
2023/10/12 11:35:40;;;;;;;12.18;2.20;;;14.60;99.90;;;;;;5036996;28;20094;-59
2023/10/12 11:38:17;;;;;;;10.20;1.80;;;14.60;99.90;;;;;;5040683;28;20032;-59
2023/10/12 11:40:44;;;;;;;9.93;1.92;;;14.60;99.90;;;;;;5042291;28;20045;-58
2023/10/12 11:43:10;;;;;;;12.40;2.30;;;14.50;99.90;;;;;;5040570;28;20053;-60
2023/10/12 11:45:56;;;;;;;12.73;2.72;;;14.50;99.90;;;;;;5038237;28;20421;-60
2023/10/12 11:48:23;;;;;;;14.32;2.33;;;14.40;99.90;;;;;;5040138;28;20054;-59
2023/10/12 11:50:50;;;;;;;12.73;2.60;;;14.40;99.90;;;;;;5038907;28;20476;-59
2023/10/12 11:53:17;;;;;;;12.13;2.15;;;14.40;99.90;;;;;;5018015;28;20042;-58
2023/10/12 11:55:44;;;;;;;9.95;1.60;;;14.30;99.90;;;;;;5037925;28;20112;-58
2023/10/12 11:58:16;;;;;;;10.88;1.17;;;14.20;99.90;;;;;;5040995;28;20130;-58
2023/10/12 12:00:48;;;;;;;11.27;2.45;;;14.20;99.90;;;;;;5039526;28;20472;-59
2023/10/12 12:03:15;;;;;;;13.85;2.85;;;14.00;99.90;;;;;;5039287;28;20068;-59
2023/10/12 12:05:43;;;;;;;13.68;1.80;;;13.90;99.90;;;;;;5038619;28;20468;-58
2023/10/12 12:08:17;;;;;;;10.60;2.25;;;13.80;99.90;;;;;;5018191;28;20045;-59
2023/10/12 12:13:16;;;;;;;12.32;2.42;;;13.90;99.90;;;;;;5039518;28;20068;-59
2023/10/12 12:15:45;;;;;;;13.43;2.70;;;13.90;99.90;;;;;;5037679;28;20060;-58
2023/10/12 12:18:21;;;;;;;13.52;2.58;;;13.80;99.90;;;;;;5038268;28;20068;-59
2023/10/12 12:20:48;;;;;;;13.20;2.92;;;13.80;99.90;;;;;;5038615;28;20036;-59
2023/10/12 12:23:17;;;;;;;13.23;2.83;;;13.70;99.90;;;;;;5034881;28;20079;-58
2023/10/12 12:25:44;;;;;;;11.30;2.50;;;13.70;99.90;;;;;;5033916;28;20045;-57
2023/10/12 12:28:14;;;;;;;13.02;2.78;;;13.70;99.90;;;;;;5040332;28;20037;-59
2023/10/12 12:30:46;;;;;;;15.52;3.13;;;13.60;99.90;;;;;;5039391;28;20087;-58
2023/10/12 12:33:18;;;;;;;13.45;3.03;;;13.60;99.90;;;;;;5037054;28;20079;-58
2023/10/12 12:35:47;;;;;;;10.45;2.67;;;13.60;99.90;;;;;;5038472;28;20037;-58
2023/10/12 12:40:59;;;;;;;9.65;2.20;;;13.90;99.90;;;;;;5035930;28;20112;-58
2023/10/12 12:43:25;;;;;;;12.93;2.38;;;13.80;99.90;;;;;;5002917;28;20099;-57
2023/10/12 12:45:54;;;;;;;9.77;1.95;;;13.80;99.90;;;;;;5039532;28;20461;-58
2023/10/12 12:48:20;;;;;;;11.02;2.70;;;13.90;99.90;;;;;;5036054;28;20053;-59
2023/10/12 12:50:48;;;;;;;13.15;1.63;;;13.90;99.90;;;;;;5036336;28;20095;-57
2023/10/12 12:53:18;;;;;;;11.23;2.50;;;13.80;99.90;;;;;;5020572;28;20072;-58
2023/10/12 12:55:46;;;;;;;9.13;1.52;;;13.60;99.90;;;;;;5039096;28;20040;-58
2023/10/12 12:58:15;;;;;;;11.20;2.83;;;13.80;99.90;;;;;;5035840;28;20021;-58
2023/10/12 13:00:48;;;;;;;9.85;2.53;;;13.80;99.90;;;;;;5036289;28;20139;-57
2023/10/12 13:03:16;;;;;;;10.05;2.80;;;13.70;99.90;;;;;;5036658;28;20037;-58
2023/10/12 13:05:42;;;;;;;12.98;2.60;;;13.80;99.90;;;;;;5037863;28;20036;-59
2023/10/12 13:08:11;;;;;;;13.50;2.08;;;13.70;99.90;;;;;;5037307;28;20457;-59
2023/10/12 13:10:37;;;;;;;12.77;3.00;;;13.80;99.90;;;;;;5025370;28;20029;-58
2023/10/12 13:13:04;;;;;;;12.68;3.05;;;13.60;99.90;;;;;;5037360;28;20032;-58
2023/10/12 13:15:32;;;;;;;11.98;3.40;;;13.70;99.90;;;;;;5038885;28;20178;-59
2023/10/12 13:17:59;;;;;;;10.95;2.90;;;13.80;99.90;;;;;;5039366;28;20475;-58
2023/10/12 13:20:29;;;;;;;11.73;3.17;;;13.80;99.90;;;;;;5020839;28;20045;-58
2023/10/12 13:22:58;;;;;;;12.80;3.55;;;13.60;99.90;;;;;;5037871;28;20122;-58
2023/10/12 13:25:26;;;;;;;13.82;3.47;;;13.60;99.90;;;;;;5037346;28;20041;-60
2023/10/12 13:27:52;;;;;;;12.32;3.67;;;13.60;99.90;;;;;;5035269;28;20045;-60
2023/10/12 13:30:18;;;;;;;11.85;3.85;;;13.50;99.90;;;;;;5018566;28;20037;-58
2023/10/12 13:32:48;;;;;;;12.60;3.58;;;13.70;99.90;;;;;;5036754;28;20518;-59
2023/10/12 13:35:41;;;;;;;11.35;3.47;;;13.60;99.90;;;;;;5038514;28;20619;-63
2023/10/12 13:38:11;;;;;;;11.98;3.47;;;13.70;99.90;;;;;;5038428;28;20500;-59
2023/10/12 13:40:42;;;;;;;12.02;3.50;;;13.50;99.90;;;;;;5018819;28;20481;-58
2023/10/12 13:43:18;;;;;;;10.82;3.53;;;13.50;99.90;;;;;;5037591;28;20120;-59
2023/10/12 13:45:48;;;;;;;12.55;3.47;;;13.60;99.90;;;;;;5039269;28;20447;-59
2023/10/12 13:48:17;;;;;;;12.82;3.47;;;13.40;99.90;;;;;;5036875;28;20049;-59
2023/10/12 13:50:47;;;;;;;14.45;4.32;;;13.70;99.90;;;;;;5038127;28;20041;-59
2023/10/12 13:53:24;;;;;;;10.98;3.65;;;13.70;99.90;;;;;;5038477;28;20537;-58
2023/10/12 13:55:50;;;;;;;9.90;3.42;;;13.50;99.90;;;;;;5036900;28;20090;-59
2023/10/12 13:58:16;;;;;;;12.40;3.50;;;13.50;99.90;;;;;;5006905;28;20079;-57
2023/10/12 14:00:42;;;;;;;13.60;4.00;;;13.40;99.90;;;;;;5038688;28;20041;-57
2023/10/12 14:03:13;;;;;;;11.88;3.63;;;13.60;99.90;;;;;;5036809;28;20033;-58
2023/10/12 14:05:40;;;;;;;12.77;3.85;;;13.40;99.90;;;;;;5036525;28;20502;-59
2023/10/12 14:08:12;;;;;;;10.75;3.80;;;13.40;99.90;;;;;;5038182;28;20033;-58
2023/10/12 14:10:44;;;;;;;11.98;3.33;;;13.60;99.90;;;;;;5036871;28;20469;-59
2023/10/12 14:13:13;;;;;;;10.55;3.50;;;13.40;99.90;;;;;;5038058;28;20040;-57
2023/10/12 14:15:43;;;;;;;4.88;2.15;;;13.60;99.90;;;;;;5038470;28;20372;-58
2023/10/12 14:18:16;;;;;;;9.18;3.17;;;13.60;99.90;;;;;;5038391;28;20025;-58
2023/10/12 14:20:46;;;;;;;13.00;3.90;;;13.30;99.90;;;;;;5035643;28;20029;-58
2023/10/12 14:23:13;;;;;;;12.38;3.42;;;13.60;99.90;;;;;;5040356;28;20044;-58
2023/10/12 14:25:50;;;;;;;11.65;3.40;;;13.60;99.90;;;;;;5038481;28;20068;-58
2023/10/12 14:28:17;;;;;;;11.95;4.32;;;13.60;99.90;;;;;;5014348;28;20044;-58
2023/10/12 14:30:47;;;;;;;10.18;3.40;;;13.30;99.90;;;;;;5035160;28;20499;-58
2023/10/12 14:33:20;;;;;;;9.82;3.50;;;13.60;99.90;;;;;;5021158;28;20037;-58
2023/10/12 14:35:47;;;;;;;11.55;3.95;;;13.60;99.90;;;;;;5038705;28;20037;-58
2023/10/12 14:38:19;;;;;;;10.65;3.60;;;13.30;99.90;;;;;;5035144;28;20388;-58
2023/10/12 14:40:45;;;;;;;13.15;3.90;;;13.60;99.90;;;;;;5034447;28;20038;-58
2023/10/12 14:43:13;;;;;;;12.35;2.45;;;13.50;99.90;;;;;;5034037;28;20692;-59
2023/10/12 14:45:43;;;;;;;11.35;3.83;;;13.40;99.90;;;;;;5038328;28;20044;-58
2023/10/12 14:48:10;;;;;;;10.63;3.70;;;13.50;99.90;;;;;;5017277;28;20068;-58
2023/10/12 14:50:38;;;;;;;12.30;4.15;;;13.60;99.90;;;;;;5034988;28;20041;-59
2023/10/12 14:53:09;;;;;;;9.57;4.07;;;13.70;99.90;;;;;;5037126;28;20038;-58
2023/10/12 14:55:35;;;;;;;10.00;3.78;;;13.40;99.90;;;;;;5037017;28;20052;-58
2023/10/12 14:58:02;;;;;;;10.75;4.75;;;13.60;99.90;;;;;;5020409;28;20160;-58
2023/10/12 15:00:29;;;;;;;9.05;3.97;;;13.60;99.90;;;;;;5034998;28;20049;-58
2023/10/12 15:02:57;;;;;;;13.02;3.83;;;13.40;99.90;;;;;;5018735;28;20418;-58
2023/10/12 15:05:27;;;;;;;13.15;4.70;;;13.60;99.90;;;;;;5035528;28;20041;-58
2023/10/12 15:07:57;;;;;;;12.07;3.88;;;13.60;99.90;;;;;;5036655;28;20111;-56
2023/10/12 15:10:23;;;;;;;10.00;3.30;;;13.50;99.90;;;;;;5036799;28;20041;-59
2023/10/12 15:12:50;;;;;;;12.73;4.78;;;13.50;99.90;;;;;;5020316;28;20047;-56
2023/10/12 15:15:20;;;;;;;12.73;4.53;;;13.40;99.90;;;;;;5038068;28;20171;-55
2023/10/12 15:17:46;;;;;;;11.52;3.58;;;13.40;99.90;;;;;;5036365;28;20037;-59